New Munster, Wisconsin
Current Conditions -  °F | °C
As of 2:15 AM on Saturday 01 Nov 2014 (Local Time) from KBUU Reporting Station
Overcast Overcast  
Wind Chill: 25°   Ceiling: 3400
Heat Index: 32°   Visibility: 10mi
Dew Point: 20°   Wind: 8mph
Humidity: 61%   Direction: 350°N
Pressure: 30.39"   Gusts: NA
Location:  42.58°N, 88.23°W
Report Text: KBUU 010715Z AUTO 35007KT 10SM OVC034 00/M07 A3039 RMK AO2 T00001068
Loading
Personal Weather Stations






























Interactive Weather Map
Tropical Storm Tracking
New forecast layout! Learn more

10-Day Weather Forecast

Advertisements
Track Severe Weather on mobile